x

South Brooks (46132) Wave Buoy

2:00 - Tue 21st Oct 2014 All times are PDT. -7 hours from GMT.

  • Sig Wave height 11.2ft
  • Peak Period 14s
  • Wind
    22mph, 27mph gusts
  • Sea Temp 59°f
  • Ar Temp 58°f
  • Sea Pressure 1002.6mb
  • South Brooks
  • South Brooks

More Historic Weather Station data

Upgrade to MSW Pro to gain access to the past 30 days of data for over 8000 Wavebouys and Weather Stations around the globe.

Join Pro

Comparision Forecast

View Surf forecast
   
Ter 10/21 2:00 11ft 14s 22 27 mph 1002.6mb 59f 58f
1:00 11.5ft 14s 18 22 mph 1002.6mb 59f 58f
12:00 10.5ft 14s 16 20 mph 1002.6mb 59f 58f
Seg 10/20 11:00 11ft 13s 11 16 mph 1002.9mb 59f 58f
10:00 11ft 14s 9 11 mph 1003mb 59f 58f
9:00 11.5ft 15s 7 9 mph 1003mb 59f 58f
8:00 10.5ft 11s 7 11 mph 1002.9mb 59f 58f
7:00 12.5ft 14s 7 11 mph 1003mb 59f 58f
6:00 13ft 13s 9 11 mph 1003.1mb 59f 58f
5:00 14ft 14s 9 11 mph 1003.1mb 59f 59f
4:00 14ft 14s 9 13 mph 1003.1mb 59f 59f
3:00 14ft 14s 11 13 mph 1002.9mb 59f 59f
2:00 14ft 14s 11 13 mph 1002.4mb 59f 58f
1:00 12ft 15s 11 13 mph 1002.1mb 59f 57f
12:00 13ft 14s 16 18 mph 1002.3mb 58f 56f
11:00 12ft 10s 20 27 mph 1002mb 58f 57f
10:00 12ft 16s 18 20 mph 1001.5mb 59f 59f
9:00 11.5ft 10s 18 22 mph 1000.5mb 58f 59f
8:00 12ft 14s 20 25 mph 1000.1mb 58f 59f
7:00 11.5ft 14s 18 22 mph 1000mb 58f 59f
6:00 12.5ft 10s 18 22 mph 1000mb 58f 59f
5:00 13ft 15s 18 20 mph 999.7mb 58f 58f
4:00 14ft 10s 16 20 mph 999.8mb 58f 58f
3:00 14ft 15s 18 22 mph 999.7mb 58f 58f
2:00 14.5ft 11s 22 27 mph 999.1mb 58f 58f
1:00 14.5ft 10s 20 25 mph 998.8mb 58f 58f
12:00 14ft 10s 18 22 mph 998.6mb 58f 57f
Dom 10/19 11:00 15ft 11s 20 25 mph 998.6mb 58f 59f
10:00 15ft 10s 20 27 mph 998.7mb 58f 59f
7:00 14.5ft 11s 20 25 mph 998.3mb 58f 59f
6:00 15ft 11s 20 25 mph 998mb 58f 59f
5:00 15ft 11s 16 20 mph 998mb 58f 59f
4:00 15.5ft 11s 16 18 mph 997.3mb 58f 59f
3:00 15ft 10s 16 20 mph 996.5mb 58f 59f
2:00 15.5ft 9s 18 22 mph 996.1mb 58f 59f
1:00 16ft 12s 22 27 mph 995.6mb 58f 59f
12:00 16.5ft 10s 22 29 mph 995.2mb 58f 59f
11:00 17.5ft 11s 22 29 mph 994.2mb 58f 59f
10:00 18.5ft 11s 18 22 mph 993.2mb 58f 59f
9:00 18.5ft 8s 31 40 mph 992.5mb 58f 59f
8:00 17.5ft 11s 36 47 mph 991.9mb 58f 59f
7:00 18.5ft 10s 38 51 mph 992.1mb 58f 58f
6:00 16.5ft 10s 38 49 mph 992mb 58f 60f
5:00  -   -  36
mph
993.6mb - 59f
4:00 16.5ft 10s 38 49 mph 994.2mb 58f 59f
3:00 15ft 8s 38 47 mph 995.2mb 58f 60f
2:00 15.5ft 10s 40 51 mph 996.1mb 58f 60f
1:00 16ft 9s 36 45 mph 996.7mb 58f 59f
12:00 15.5ft 10s 36 45 mph 997.4mb 58f 60f
Sáb 10/18 11:00 17ft 10s 38 47 mph 998.2mb 58f 60f
10:00 15ft 10s 36 45 mph 998.5mb 58f 59f
9:00 15ft 8s 36 45 mph 999.1mb 58f 58f
8:00 16.5ft 8s 38 47 mph 999.6mb 58f 59f
7:00 15.5ft 10s 36 47 mph 999.8mb 58f 59f
6:00 15ft 11s 36 45 mph 1000.3mb 58f 59f
5:00 13.5ft 8s 38 45 mph 1001.3mb 58f 58f
4:00 13ft 7s 34 43 mph 1002.2mb 58f 59f
3:00 11ft 7s 31 40 mph 1002.9mb 58f 59f
2:00 11ft 11s 34 43 mph 1003.1mb 58f 60f
1:00 11ft 10s 31 40 mph 1003.8mb 58f 59f
12:00 10.5ft 11s 31 38 mph 1004.1mb 58f 60f
11:00 11ft 10s 29 36 mph 1004.1mb 58f 60f
10:00 11ft 10s 27 34 mph 1004mb 58f 59f
9:00 12ft 11s 22 29 mph 1003.6mb 58f 59f
8:00 11.5ft 11s 27 34 mph 1003mb 58f 59f
7:00 11ft 10s 27 36 mph 1002.9mb 58f 58f
6:00 11ft 11s 25 34 mph 1003.7mb 58f 58f
5:00 11ft 11s 20 25 mph 1004.4mb 58f 59f
4:00 11ft 10s 18 20 mph 1004.9mb 58f 59f
3:00 11ft 12s 18 20 mph 1005.3mb 58f 59f
2:00 11ft 12s 18 22 mph 1005.4mb 58f 58f
1:00 10ft 12s 13 16 mph 1005.2mb 58f 58f
12:00 11ft 12s 18 29 mph 1004.4mb 58f 58f
Sex 10/17 11:00 11ft 12s 13 18 mph 1003.5mb 58f 58f
10:00 12ft 11s 11 16 mph 1002.4mb 58f 58f
9:00 12ft 11s 11 13 mph 1001.1mb 58f 58f
8:00 12.5ft 11s 13 16 mph 999.6mb 59f 58f
7:00 13ft 12s 16 18 mph 998mb 59f 58f
6:00 15ft 11s 18 22 mph 996mb 59f 59f
5:00 16.5ft 11s 20 25 mph 995.2mb 59f 59f
4:00 17ft 10s 18 25 mph 995.1mb 58f 59f
3:00 17.5ft 10s 22 27 mph 994.2mb 58f 60f
2:00 18ft 12s 22 27 mph 994.2mb 58f 59f
1:00 20ft 12s 25 31 mph 991.2mb 58f 59f
12:00 18.5ft 11s 36 45 mph 991.2mb 58f 56f
11:00 19.5ft 12s 27 38 mph 993.7mb 58f 56f